sensor_id;sensor_type;location;lat;lon;timestamp;P1;durP1;ratioP1;P2;durP2;ratioP2
18407;SDS011;9330;52.210;21.174;2024-02-21T00:01:32;8.48;;;4.00;;
18407;SDS011;9330;52.210;21.174;2024-02-21T00:03:59;9.77;;;3.88;;
18407;SDS011;9330;52.210;21.174;2024-02-21T00:06:26;8.57;;;3.70;;
18407;SDS011;9330;52.210;21.174;2024-02-21T00:08:53;8.88;;;3.75;;
18407;SDS011;9330;52.210;21.174;2024-02-21T00:11:19;11.07;;;4.25;;
18407;SDS011;9330;52.210;21.174;2024-02-21T00:13:47;12.77;;;3.80;;
18407;SDS011;9330;52.210;21.174;2024-02-21T00:16:14;16.35;;;4.63;;
18407;SDS011;9330;52.210;21.174;2024-02-21T00:18:43;8.70;;;4.20;;
18407;SDS011;9330;52.210;21.174;2024-02-21T00:21:10;8.55;;;3.80;;
18407;SDS011;9330;52.210;21.174;2024-02-21T00:23:40;7.90;;;4.03;;
18407;SDS011;9330;52.210;21.174;2024-02-21T00:26:07;8.90;;;4.53;;
18407;SDS011;9330;52.210;21.174;2024-02-21T00:28:34;11.07;;;4.25;;
18407;SDS011;9330;52.210;21.174;2024-02-21T00:31:00;10.15;;;4.05;;
18407;SDS011;9330;52.210;21.174;2024-02-21T00:33:27;9.13;;;4.28;;
18407;SDS011;9330;52.210;21.174;2024-02-21T00:35:56;10.02;;;4.60;;
18407;SDS011;9330;52.210;21.174;2024-02-21T00:38:23;8.82;;;4.40;;
18407;SDS011;9330;52.210;21.174;2024-02-21T00:40:49;11.43;;;4.05;;
18407;SDS011;9330;52.210;21.174;2024-02-21T00:43:16;8.95;;;3.90;;
18407;SDS011;9330;52.210;21.174;2024-02-21T00:45:43;11.85;;;4.53;;
18407;SDS011;9330;52.210;21.174;2024-02-21T00:48:10;12.77;;;4.40;;
18407;SDS011;9330;52.210;21.174;2024-02-21T00:50:37;12.20;;;4.20;;
18407;SDS011;9330;52.210;21.174;2024-02-21T00:53:05;11.75;;;3.97;;
18407;SDS011;9330;52.210;21.174;2024-02-21T00:55:32;8.07;;;4.07;;
18407;SDS011;9330;52.210;21.174;2024-02-21T00:58:00;9.05;;;4.32;;
18407;SDS011;9330;52.210;21.174;2024-02-21T01:00:27;9.00;;;3.97;;
18407;SDS011;9330;52.210;21.174;2024-02-21T01:02:54;10.85;;;4.00;;
18407;SDS011;9330;52.210;21.174;2024-02-21T01:05:21;10.40;;;4.30;;
18407;SDS011;9330;52.210;21.174;2024-02-21T01:07:48;12.43;;;5.03;;
18407;SDS011;9330;52.210;21.174;2024-02-21T01:10:16;14.13;;;4.40;;
18407;SDS011;9330;52.210;21.174;2024-02-21T01:12:43;13.25;;;4.88;;
18407;SDS011;9330;52.210;21.174;2024-02-21T01:15:10;9.82;;;4.13;;
18407;SDS011;9330;52.210;21.174;2024-02-21T01:17:37;11.98;;;4.57;;
18407;SDS011;9330;52.210;21.174;2024-02-21T01:20:06;10.45;;;4.55;;
18407;SDS011;9330;52.210;21.174;2024-02-21T01:22:33;9.80;;;4.65;;
18407;SDS011;9330;52.210;21.174;2024-02-21T01:25:00;9.55;;;5.13;;
18407;SDS011;9330;52.210;21.174;2024-02-21T01:27:28;11.52;;;5.55;;
18407;SDS011;9330;52.210;21.174;2024-02-21T01:29:55;9.50;;;4.80;;
18407;SDS011;9330;52.210;21.174;2024-02-21T01:32:22;10.23;;;5.15;;
18407;SDS011;9330;52.210;21.174;2024-02-21T01:34:49;8.73;;;4.63;;
18407;SDS011;9330;52.210;21.174;2024-02-21T01:37:16;12.13;;;5.65;;
18407;SDS011;9330;52.210;21.174;2024-02-21T01:39:43;13.57;;;5.43;;
18407;SDS011;9330;52.210;21.174;2024-02-21T01:42:10;13.90;;;6.50;;
18407;SDS011;9330;52.210;21.174;2024-02-21T01:44:38;12.00;;;5.30;;
18407;SDS011;9330;52.210;21.174;2024-02-21T01:47:05;11.43;;;5.93;;
18407;SDS011;9330;52.210;21.174;2024-02-21T01:49:33;13.82;;;6.22;;
18407;SDS011;9330;52.210;21.174;2024-02-21T01:52:00;14.55;;;5.55;;
18407;SDS011;9330;52.210;21.174;2024-02-21T01:54:28;13.90;;;5.70;;
18407;SDS011;9330;52.210;21.174;2024-02-21T01:56:55;13.77;;;5.95;;
18407;SDS011;9330;52.210;21.174;2024-02-21T01:59:23;14.52;;;5.38;;
18407;SDS011;9330;52.210;21.174;2024-02-21T02:01:51;16.95;;;6.20;;
18407;SDS011;9330;52.210;21.174;2024-02-21T02:04:19;14.10;;;6.03;;
18407;SDS011;9330;52.210;21.174;2024-02-21T02:06:46;15.43;;;7.07;;
18407;SDS011;9330;52.210;21.174;2024-02-21T02:09:14;11.95;;;6.05;;
18407;SDS011;9330;52.210;21.174;2024-02-21T02:11:42;12.48;;;5.95;;
18407;SDS011;9330;52.210;21.174;2024-02-21T02:14:09;13.75;;;6.13;;
18407;SDS011;9330;52.210;21.174;2024-02-21T02:16:36;13.88;;;6.57;;
18407;SDS011;9330;52.210;21.174;2024-02-21T02:19:04;11.63;;;6.05;;
18407;SDS011;9330;52.210;21.174;2024-02-21T02:21:32;14.57;;;7.10;;
18407;SDS011;9330;52.210;21.174;2024-02-21T02:24:06;13.00;;;6.53;;
18407;SDS011;9330;52.210;21.174;2024-02-21T02:26:33;14.60;;;7.47;;
18407;SDS011;9330;52.210;21.174;2024-02-21T02:29:01;12.60;;;7.22;;
18407;SDS011;9330;52.210;21.174;2024-02-21T02:31:28;16.25;;;8.05;;
18407;SDS011;9330;52.210;21.174;2024-02-21T02:33:54;12.63;;;7.18;;
18407;SDS011;9330;52.210;21.174;2024-02-21T02:36:21;12.50;;;7.47;;
18407;SDS011;9330;52.210;21.174;2024-02-21T02:38:48;13.50;;;8.35;;
18407;SDS011;9330;52.210;21.174;2024-02-21T02:41:17;15.43;;;7.90;;
18407;SDS011;9330;52.210;21.174;2024-02-21T02:43:44;12.38;;;7.35;;
18407;SDS011;9330;52.210;21.174;2024-02-21T02:46:11;12.90;;;8.00;;
18407;SDS011;9330;52.210;21.174;2024-02-21T02:48:38;13.73;;;8.02;;
18407;SDS011;9330;52.210;21.174;2024-02-21T02:51:04;12.30;;;7.60;;
18407;SDS011;9330;52.210;21.174;2024-02-21T02:53:31;14.50;;;8.70;;
18407;SDS011;9330;52.210;21.174;2024-02-21T02:55:58;14.02;;;8.18;;
18407;SDS011;9330;52.210;21.174;2024-02-21T02:58:27;14.23;;;8.93;;
18407;SDS011;9330;52.210;21.174;2024-02-21T03:00:54;17.17;;;9.85;;
18407;SDS011;9330;52.210;21.174;2024-02-21T03:03:21;16.73;;;8.98;;
18407;SDS011;9330;52.210;21.174;2024-02-21T03:05:48;21.25;;;10.65;;
18407;SDS011;9330;52.210;21.174;2024-02-21T03:08:15;16.80;;;9.38;;
18407;SDS011;9330;52.210;21.174;2024-02-21T03:10:41;17.00;;;9.02;;
18407;SDS011;9330;52.210;21.174;2024-02-21T03:13:08;13.75;;;8.55;;
18407;SDS011;9330;52.210;21.174;2024-02-21T03:15:37;15.40;;;9.38;;
18407;SDS011;9330;52.210;21.174;2024-02-21T03:18:04;12.13;;;7.75;;
18407;SDS011;9330;52.210;21.174;2024-02-21T03:20:31;12.32;;;8.25;;
18407;SDS011;9330;52.210;21.174;2024-02-21T03:22:58;15.70;;;9.05;;
18407;SDS011;9330;52.210;21.174;2024-02-21T03:25:25;14.80;;;9.13;;
18407;SDS011;9330;52.210;21.174;2024-02-21T03:27:52;14.82;;;8.00;;
18407;SDS011;9330;52.210;21.174;2024-02-21T03:30:19;14.20;;;7.72;;
18407;SDS011;9330;52.210;21.174;2024-02-21T03:32:47;16.85;;;8.45;;
18407;SDS011;9330;52.210;21.174;2024-02-21T03:35:14;16.05;;;8.38;;
18407;SDS011;9330;52.210;21.174;2024-02-21T03:37:41;17.33;;;8.80;;
18407;SDS011;9330;52.210;21.174;2024-02-21T03:40:08;13.35;;;8.20;;
18407;SDS011;9330;52.210;21.174;2024-02-21T03:42:36;14.80;;;7.90;;
18407;SDS011;9330;52.210;21.174;2024-02-21T03:45:03;13.20;;;8.32;;
18407;SDS011;9330;52.210;21.174;2024-02-21T03:47:31;14.82;;;9.10;;
18407;SDS011;9330;52.210;21.174;2024-02-21T03:49:59;12.85;;;8.07;;
18407;SDS011;9330;52.210;21.174;2024-02-21T03:52:26;13.73;;;8.00;;
18407;SDS011;9330;52.210;21.174;2024-02-21T03:54:53;12.90;;;7.85;;
18407;SDS011;9330;52.210;21.174;2024-02-21T03:57:21;12.43;;;7.63;;
18407;SDS011;9330;52.210;21.174;2024-02-21T03:59:49;10.65;;;7.18;;
18407;SDS011;9330;52.210;21.174;2024-02-21T04:02:17;11.07;;;7.30;;
18407;SDS011;9330;52.210;21.174;2024-02-21T04:04:44;14.07;;;7.93;;
18407;SDS011;9330;52.210;21.174;2024-02-21T04:07:12;13.35;;;8.25;;
18407;SDS011;9330;52.210;21.174;2024-02-21T04:09:39;12.98;;;7.45;;
18407;SDS011;9330;52.210;21.174;2024-02-21T04:12:07;10.60;;;7.25;;
18407;SDS011;9330;52.210;21.174;2024-02-21T04:14:35;15.07;;;8.27;;
18407;SDS011;9330;52.210;21.174;2024-02-21T04:17:02;13.38;;;7.25;;
18407;SDS011;9330;52.210;21.174;2024-02-21T04:19:30;10.80;;;7.45;;
18407;SDS011;9330;52.210;21.174;2024-02-21T04:21:57;13.32;;;8.23;;
18407;SDS011;9330;52.210;21.174;2024-02-21T04:24:26;12.23;;;7.38;;
18407;SDS011;9330;52.210;21.174;2024-02-21T04:26:53;13.50;;;8.18;;
18407;SDS011;9330;52.210;21.174;2024-02-21T04:29:19;13.13;;;7.25;;
18407;SDS011;9330;52.210;21.174;2024-02-21T04:31:46;14.43;;;8.38;;
18407;SDS011;9330;52.210;21.174;2024-02-21T04:34:13;11.48;;;8.18;;
18407;SDS011;9330;52.210;21.174;2024-02-21T04:36:40;15.10;;;8.60;;
18407;SDS011;9330;52.210;21.174;2024-02-21T04:39:08;13.60;;;7.82;;
18407;SDS011;9330;52.210;21.174;2024-02-21T04:41:37;12.85;;;7.78;;
18407;SDS011;9330;52.210;21.174;2024-02-21T04:44:04;16.38;;;8.52;;
18407;SDS011;9330;52.210;21.174;2024-02-21T04:46:31;12.55;;;7.35;;
18407;SDS011;9330;52.210;21.174;2024-02-21T04:48:58;12.45;;;7.30;;
18407;SDS011;9330;52.210;21.174;2024-02-21T04:51:25;13.13;;;8.05;;
18407;SDS011;9330;52.210;21.174;2024-02-21T04:53:52;13.25;;;8.50;;
18407;SDS011;9330;52.210;21.174;2024-02-21T04:56:19;13.18;;;8.30;;
18407;SDS011;9330;52.210;21.174;2024-02-21T04:58:47;11.05;;;7.70;;
18407;SDS011;9330;52.210;21.174;2024-02-21T05:01:14;11.38;;;7.07;;
18407;SDS011;9330;52.210;21.174;2024-02-21T05:03:41;11.20;;;7.70;;
18407;SDS011;9330;52.210;21.174;2024-02-21T05:06:08;8.93;;;7.65;;
18407;SDS011;9330;52.210;21.174;2024-02-21T05:08:35;13.35;;;7.90;;
18407;SDS011;9330;52.210;21.174;2024-02-21T05:11:01;11.30;;;7.32;;
18407;SDS011;9330;52.210;21.174;2024-02-21T05:13:29;11.73;;;7.40;;
18407;SDS011;9330;52.210;21.174;2024-02-21T05:15:57;13.45;;;7.80;;
18407;SDS011;9330;52.210;21.174;2024-02-21T05:18:26;13.50;;;8.57;;
18407;SDS011;9330;52.210;21.174;2024-02-21T05:20:53;16.33;;;9.43;;
18407;SDS011;9330;52.210;21.174;2024-02-21T05:23:20;13.88;;;9.13;;
18407;SDS011;9330;52.210;21.174;2024-02-21T05:25:47;15.15;;;10.63;;
18407;SDS011;9330;52.210;21.174;2024-02-21T05:28:14;16.85;;;10.60;;
18407;SDS011;9330;52.210;21.174;2024-02-21T05:30:41;16.83;;;10.02;;
18407;SDS011;9330;52.210;21.174;2024-02-21T05:33:09;18.40;;;11.40;;
18407;SDS011;9330;52.210;21.174;2024-02-21T05:35:37;16.75;;;9.88;;
18407;SDS011;9330;52.210;21.174;2024-02-21T05:38:04;17.95;;;9.93;;
18407;SDS011;9330;52.210;21.174;2024-02-21T05:40:36;13.63;;;9.48;;
18407;SDS011;9330;52.210;21.174;2024-02-21T05:43:03;17.58;;;10.48;;
18407;SDS011;9330;52.210;21.174;2024-02-21T05:45:30;19.42;;;10.90;;
18407;SDS011;9330;52.210;21.174;2024-02-21T05:47:57;17.63;;;10.43;;
18407;SDS011;9330;52.210;21.174;2024-02-21T05:50:26;18.98;;;11.15;;
18407;SDS011;9330;52.210;21.174;2024-02-21T05:52:54;16.67;;;9.98;;
18407;SDS011;9330;52.210;21.174;2024-02-21T05:55:21;17.58;;;9.73;;
18407;SDS011;9330;52.210;21.174;2024-02-21T05:57:48;16.27;;;9.88;;
18407;SDS011;9330;52.210;21.174;2024-02-21T06:00:15;17.17;;;10.18;;
18407;SDS011;9330;52.210;21.174;2024-02-21T06:02:43;17.02;;;9.48;;
18407;SDS011;9330;52.210;21.174;2024-02-21T06:05:09;15.55;;;9.60;;
18407;SDS011;9330;52.210;21.174;2024-02-21T06:07:38;15.02;;;9.20;;
18407;SDS011;9330;52.210;21.174;2024-02-21T06:10:06;12.57;;;8.32;;
18407;SDS011;9330;52.210;21.174;2024-02-21T06:12:34;15.27;;;8.60;;
18407;SDS011;9330;52.210;21.174;2024-02-21T06:15:00;13.65;;;9.15;;
18407;SDS011;9330;52.210;21.174;2024-02-21T06:17:27;14.23;;;9.07;;
18407;SDS011;9330;52.210;21.174;2024-02-21T06:19:54;14.98;;;9.48;;
18407;SDS011;9330;52.210;21.174;2024-02-21T06:22:21;13.38;;;8.85;;
18407;SDS011;9330;52.210;21.174;2024-02-21T06:24:50;14.75;;;9.35;;
18407;SDS011;9330;52.210;21.174;2024-02-21T06:27:18;13.80;;;8.95;;
18407;SDS011;9330;52.210;21.174;2024-02-21T06:29:45;13.00;;;8.85;;
18407;SDS011;9330;52.210;21.174;2024-02-21T06:32:12;15.13;;;9.50;;
18407;SDS011;9330;52.210;21.174;2024-02-21T06:34:39;15.93;;;9.27;;
18407;SDS011;9330;52.210;21.174;2024-02-21T06:37:05;14.55;;;10.18;;
18407;SDS011;9330;52.210;21.174;2024-02-21T06:39:32;16.60;;;10.43;;
18407;SDS011;9330;52.210;21.174;2024-02-21T06:42:01;16.90;;;10.27;;
18407;SDS011;9330;52.210;21.174;2024-02-21T06:44:28;14.98;;;8.95;;
18407;SDS011;9330;52.210;21.174;2024-02-21T06:46:54;17.83;;;10.07;;
18407;SDS011;9330;52.210;21.174;2024-02-21T06:49:21;19.92;;;10.60;;
18407;SDS011;9330;52.210;21.174;2024-02-21T06:51:48;21.77;;;11.25;;
18407;SDS011;9330;52.210;21.174;2024-02-21T06:54:15;19.55;;;10.65;;
18407;SDS011;9330;52.210;21.174;2024-02-21T06:56:42;19.60;;;10.40;;
18407;SDS011;9330;52.210;21.174;2024-02-21T06:59:10;17.08;;;10.88;;
18407;SDS011;9330;52.210;21.174;2024-02-21T07:01:44;15.88;;;10.50;;
18407;SDS011;9330;52.210;21.174;2024-02-21T07:04:11;17.17;;;11.02;;
18407;SDS011;9330;52.210;21.174;2024-02-21T07:06:38;16.42;;;11.32;;
18407;SDS011;9330;52.210;21.174;2024-02-21T07:09:05;21.00;;;11.02;;
18407;SDS011;9330;52.210;21.174;2024-02-21T07:11:32;23.40;;;12.93;;
18407;SDS011;9330;52.210;21.174;2024-02-21T07:13:59;18.90;;;12.15;;
18407;SDS011;9330;52.210;21.174;2024-02-21T07:16:27;18.33;;;11.73;;
18407;SDS011;9330;52.210;21.174;2024-02-21T07:18:55;19.05;;;12.88;;
18407;SDS011;9330;52.210;21.174;2024-02-21T07:21:23;17.40;;;11.90;;
18407;SDS011;9330;52.210;21.174;2024-02-21T07:23:50;23.77;;;13.65;;
18407;SDS011;9330;52.210;21.174;2024-02-21T07:26:16;20.83;;;12.77;;
18407;SDS011;9330;52.210;21.174;2024-02-21T07:28:43;22.17;;;13.38;;
18407;SDS011;9330;52.210;21.174;2024-02-21T07:31:11;21.45;;;13.68;;
18407;SDS011;9330;52.210;21.174;2024-02-21T07:33:39;24.55;;;14.70;;
18407;SDS011;9330;52.210;21.174;2024-02-21T07:36:06;22.73;;;12.88;;
18407;SDS011;9330;52.210;21.174;2024-02-21T07:38:33;20.80;;;13.75;;
18407;SDS011;9330;52.210;21.174;2024-02-21T07:41:00;27.98;;;13.93;;
18407;SDS011;9330;52.210;21.174;2024-02-21T07:43:29;23.65;;;14.05;;
18407;SDS011;9330;52.210;21.174;2024-02-21T07:45:56;19.42;;;13.27;;
18407;SDS011;9330;52.210;21.174;2024-02-21T07:48:22;22.58;;;13.05;;
18407;SDS011;9330;52.210;21.174;2024-02-21T07:50:53;19.52;;;13.45;;
18407;SDS011;9330;52.210;21.174;2024-02-21T07:53:19;22.77;;;13.80;;
18407;SDS011;9330;52.210;21.174;2024-02-21T07:55:46;25.00;;;14.85;;
18407;SDS011;9330;52.210;21.174;2024-02-21T07:58:13;27.58;;;14.73;;
18407;SDS011;9330;52.210;21.174;2024-02-21T08:00:40;30.23;;;14.32;;
18407;SDS011;9330;52.210;21.174;2024-02-21T08:03:07;21.88;;;13.77;;
18407;SDS011;9330;52.210;21.174;2024-02-21T08:05:34;24.15;;;14.23;;
18407;SDS011;9330;52.210;21.174;2024-02-21T08:08:03;23.02;;;14.13;;
18407;SDS011;9330;52.210;21.174;2024-02-21T08:10:30;26.38;;;14.93;;
18407;SDS011;9330;52.210;21.174;2024-02-21T08:12:57;25.35;;;14.40;;
18407;SDS011;9330;52.210;21.174;2024-02-21T08:15:24;29.05;;;15.18;;
18407;SDS011;9330;52.210;21.174;2024-02-21T08:17:54;24.10;;;15.35;;
18407;SDS011;9330;52.210;21.174;2024-02-21T08:20:24;24.20;;;14.20;;
18407;SDS011;9330;52.210;21.174;2024-02-21T08:22:51;30.98;;;16.15;;
18407;SDS011;9330;52.210;21.174;2024-02-21T08:25:20;21.45;;;13.65;;
18407;SDS011;9330;52.210;21.174;2024-02-21T08:27:46;32.20;;;16.80;;
18407;SDS011;9330;52.210;21.174;2024-02-21T08:30:14;22.90;;;14.75;;
18407;SDS011;9330;52.210;21.174;2024-02-21T08:32:41;25.25;;;14.40;;
18407;SDS011;9330;52.210;21.174;2024-02-21T08:35:08;28.77;;;14.30;;
18407;SDS011;9330;52.210;21.174;2024-02-21T08:37:35;25.35;;;14.38;;
18407;SDS011;9330;52.210;21.174;2024-02-21T08:40:02;27.92;;;16.48;;
18407;SDS011;9330;52.210;21.174;2024-02-21T08:42:34;25.17;;;14.00;;
18407;SDS011;9330;52.210;21.174;2024-02-21T08:45:01;25.45;;;15.15;;
18407;SDS011;9330;52.210;21.174;2024-02-21T08:47:28;22.67;;;14.50;;
18407;SDS011;9330;52.210;21.174;2024-02-21T08:49:55;27.27;;;14.23;;
18407;SDS011;9330;52.210;21.174;2024-02-21T08:52:22;26.45;;;13.70;;
18407;SDS011;9330;52.210;21.174;2024-02-21T08:54:49;27.58;;;15.23;;
18407;SDS011;9330;52.210;21.174;2024-02-21T08:57:18;29.70;;;14.65;;
18407;SDS011;9330;52.210;21.174;2024-02-21T08:59:46;33.30;;;15.02;;
18407;SDS011;9330;52.210;21.174;2024-02-21T09:02:13;23.95;;;13.85;;
18407;SDS011;9330;52.210;21.174;2024-02-21T09:04:41;22.75;;;12.60;;
18407;SDS011;9330;52.210;21.174;2024-02-21T09:07:08;23.10;;;12.43;;
18407;SDS011;9330;52.210;21.174;2024-02-21T09:09:35;21.45;;;12.60;;
18407;SDS011;9330;52.210;21.174;2024-02-21T09:12:03;24.25;;;13.10;;
18407;SDS011;9330;52.210;21.174;2024-02-21T09:14:34;26.67;;;13.32;;
18407;SDS011;9330;52.210;21.174;2024-02-21T09:17:05;22.98;;;13.15;;
18407;SDS011;9330;52.210;21.174;2024-02-21T09:19:32;25.48;;;12.48;;
18407;SDS011;9330;52.210;21.174;2024-02-21T09:21:59;24.23;;;12.85;;
18407;SDS011;9330;52.210;21.174;2024-02-21T09:24:27;20.35;;;11.70;;
18407;SDS011;9330;52.210;21.174;2024-02-21T09:26:53;24.48;;;12.82;;
18407;SDS011;9330;52.210;21.174;2024-02-21T09:29:20;23.90;;;11.30;;
18407;SDS011;9330;52.210;21.174;2024-02-21T09:31:47;21.55;;;11.98;;
18407;SDS011;9330;52.210;21.174;2024-02-21T09:34:16;17.75;;;10.57;;
18407;SDS011;9330;52.210;21.174;2024-02-21T09:36:43;21.85;;;11.45;;
18407;SDS011;9330;52.210;21.174;2024-02-21T09:39:10;24.38;;;11.93;;
18407;SDS011;9330;52.210;21.174;2024-02-21T09:41:40;22.35;;;11.68;;
18407;SDS011;9330;52.210;21.174;2024-02-21T09:44:13;20.50;;;10.85;;
18407;SDS011;9330;52.210;21.174;2024-02-21T09:46:43;21.10;;;10.55;;
18407;SDS011;9330;52.210;21.174;2024-02-21T09:49:21;23.90;;;11.85;;
18407;SDS011;9330;52.210;21.174;2024-02-21T09:51:56;20.08;;;11.18;;
18407;SDS011;9330;52.210;21.174;2024-02-21T09:54:25;18.98;;;10.85;;
18407;SDS011;9330;52.210;21.174;2024-02-21T09:56:54;19.38;;;10.45;;
18407;SDS011;9330;52.210;21.174;2024-02-21T09:59:21;19.02;;;10.45;;
18407;SDS011;9330;52.210;21.174;2024-02-21T10:01:49;19.13;;;9.35;;
18407;SDS011;9330;52.210;21.174;2024-02-21T10:04:16;19.98;;;9.93;;
18407;SDS011;9330;52.210;21.174;2024-02-21T10:06:45;16.50;;;8.90;;
18407;SDS011;9330;52.210;21.174;2024-02-21T10:09:19;21.48;;;10.35;;
18407;SDS011;9330;52.210;21.174;2024-02-21T10:11:48;17.40;;;8.55;;
18407;SDS011;9330;52.210;21.174;2024-02-21T10:14:15;17.45;;;8.80;;
18407;SDS011;9330;52.210;21.174;2024-02-21T10:16:42;15.85;;;8.13;;
18407;SDS011;9330;52.210;21.174;2024-02-21T10:19:15;15.27;;;8.30;;
18407;SDS011;9330;52.210;21.174;2024-02-21T10:21:45;18.75;;;9.20;;
18407;SDS011;9330;52.210;21.174;2024-02-21T10:24:28;16.92;;;8.57;;
18407;SDS011;9330;52.210;21.174;2024-02-21T10:26:59;17.30;;;7.75;;
18407;SDS011;9330;52.210;21.174;2024-02-21T10:29:28;15.90;;;7.38;;
18407;SDS011;9330;52.210;21.174;2024-02-21T10:32:03;14.13;;;6.82;;
18407;SDS011;9330;52.210;21.174;2024-02-21T10:34:34;17.63;;;7.28;;
18407;SDS011;9330;52.210;21.174;2024-02-21T10:37:03;17.27;;;7.38;;
18407;SDS011;9330;52.210;21.174;2024-02-21T10:39:31;14.73;;;6.70;;
18407;SDS011;9330;52.210;21.174;2024-02-21T10:41:59;16.10;;;7.47;;
18407;SDS011;9330;52.210;21.174;2024-02-21T10:44:29;15.70;;;6.80;;
18407;SDS011;9330;52.210;21.174;2024-02-21T10:46:56;12.70;;;6.60;;
18407;SDS011;9330;52.210;21.174;2024-02-21T10:49:24;17.92;;;7.60;;
18407;SDS011;9330;52.210;21.174;2024-02-21T10:51:54;19.35;;;7.72;;
18407;SDS011;9330;52.210;21.174;2024-02-21T10:54:37;16.42;;;7.93;;
18407;SDS011;9330;52.210;21.174;2024-02-21T10:57:08;16.95;;;8.30;;
18407;SDS011;9330;52.210;21.174;2024-02-21T10:59:37;14.95;;;7.63;;
18407;SDS011;9330;52.210;21.174;2024-02-21T11:02:05;14.10;;;7.57;;
18407;SDS011;9330;52.210;21.174;2024-02-21T11:04:32;15.48;;;7.90;;
18407;SDS011;9330;52.210;21.174;2024-02-21T11:07:02;18.55;;;8.85;;
18407;SDS011;9330;52.210;21.174;2024-02-21T11:09:30;14.38;;;8.32;;
18407;SDS011;9330;52.210;21.174;2024-02-21T11:11:59;19.38;;;9.20;;
18407;SDS011;9330;52.210;21.174;2024-02-21T11:14:28;18.33;;;9.52;;
18407;SDS011;9330;52.210;21.174;2024-02-21T11:16:57;19.40;;;9.50;;
18407;SDS011;9330;52.210;21.174;2024-02-21T11:19:25;20.92;;;10.13;;
18407;SDS011;9330;52.210;21.174;2024-02-21T11:21:53;21.67;;;9.90;;
18407;SDS011;9330;52.210;21.174;2024-02-21T11:24:25;17.77;;;11.13;;
18407;SDS011;9330;52.210;21.174;2024-02-21T11:26:53;21.50;;;10.55;;
18407;SDS011;9330;52.210;21.174;2024-02-21T11:29:24;20.65;;;10.60;;
18407;SDS011;9330;52.210;21.174;2024-02-21T11:31:52;17.58;;;10.30;;
18407;SDS011;9330;52.210;21.174;2024-02-21T11:34:19;19.77;;;11.43;;
18407;SDS011;9330;52.210;21.174;2024-02-21T11:36:46;20.00;;;11.48;;
18407;SDS011;9330;52.210;21.174;2024-02-21T11:39:18;16.25;;;10.63;;
18407;SDS011;9330;52.210;21.174;2024-02-21T11:42:02;21.88;;;11.38;;
18407;SDS011;9330;52.210;21.174;2024-02-21T11:44:31;20.38;;;11.32;;
18407;SDS011;9330;52.210;21.174;2024-02-21T11:46:58;19.83;;;11.63;;
18407;SDS011;9330;52.210;21.174;2024-02-21T11:49:25;24.83;;;12.88;;
18407;SDS011;9330;52.210;21.174;2024-02-21T11:51:57;23.55;;;12.85;;
18407;SDS011;9330;52.210;21.174;2024-02-21T11:54:25;20.15;;;11.73;;
18407;SDS011;9330;52.210;21.174;2024-02-21T11:56:52;22.70;;;12.50;;
18407;SDS011;9330;52.210;21.174;2024-02-21T11:59:19;22.98;;;13.45;;
18407;SDS011;9330;52.210;21.174;2024-02-21T12:01:48;25.17;;;14.57;;
18407;SDS011;9330;52.210;21.174;2024-02-21T12:04:17;23.25;;;14.45;;
18407;SDS011;9330;52.210;21.174;2024-02-21T12:06:45;23.40;;;13.75;;
18407;SDS011;9330;52.210;21.174;2024-02-21T12:09:13;22.25;;;13.25;;
18407;SDS011;9330;52.210;21.174;2024-02-21T12:11:41;27.85;;;14.88;;
18407;SDS011;9330;52.210;21.174;2024-02-21T12:14:08;21.80;;;13.82;;
18407;SDS011;9330;52.210;21.174;2024-02-21T12:16:35;23.48;;;14.20;;
18407;SDS011;9330;52.210;21.174;2024-02-21T12:19:03;19.80;;;13.07;;
18407;SDS011;9330;52.210;21.174;2024-02-21T12:21:31;27.13;;;14.43;;
18407;SDS011;9330;52.210;21.174;2024-02-21T12:24:10;19.15;;;14.02;;
18407;SDS011;9330;52.210;21.174;2024-02-21T12:26:39;24.02;;;14.27;;
18407;SDS011;9330;52.210;21.174;2024-02-21T12:29:05;30.10;;;15.10;;
18407;SDS011;9330;52.210;21.174;2024-02-21T12:31:34;21.65;;;14.63;;
18407;SDS011;9330;52.210;21.174;2024-02-21T12:34:01;22.52;;;14.75;;
18407;SDS011;9330;52.210;21.174;2024-02-21T12:36:30;22.58;;;15.13;;
18407;SDS011;9330;52.210;21.174;2024-02-21T12:38:57;25.45;;;15.38;;
18407;SDS011;9330;52.210;21.174;2024-02-21T12:41:24;25.25;;;15.93;;
18407;SDS011;9330;52.210;21.174;2024-02-21T12:43:52;23.13;;;15.57;;
18407;SDS011;9330;52.210;21.174;2024-02-21T12:46:19;20.90;;;15.07;;
18407;SDS011;9330;52.210;21.174;2024-02-21T12:48:46;27.05;;;16.88;;
18407;SDS011;9330;52.210;21.174;2024-02-21T12:51:12;25.35;;;16.00;;
18407;SDS011;9330;52.210;21.174;2024-02-21T12:53:42;23.83;;;16.48;;
18407;SDS011;9330;52.210;21.174;2024-02-21T12:56:08;30.00;;;16.80;;
18407;SDS011;9330;52.210;21.174;2024-02-21T12:58:35;27.08;;;16.80;;
18407;SDS011;9330;52.210;21.174;2024-02-21T13:01:02;30.25;;;16.92;;
18407;SDS011;9330;52.210;21.174;2024-02-21T13:03:30;24.63;;;15.63;;
18407;SDS011;9330;52.210;21.174;2024-02-21T13:05:56;27.23;;;17.17;;
18407;SDS011;9330;52.210;21.174;2024-02-21T13:08:24;24.70;;;15.95;;
18407;SDS011;9330;52.210;21.174;2024-02-21T13:10:52;26.73;;;15.80;;
18407;SDS011;9330;52.210;21.174;2024-02-21T13:13:19;26.77;;;16.92;;
18407;SDS011;9330;52.210;21.174;2024-02-21T13:15:46;26.92;;;16.50;;
18407;SDS011;9330;52.210;21.174;2024-02-21T13:18:13;27.58;;;16.42;;
18407;SDS011;9330;52.210;21.174;2024-02-21T13:20:39;26.00;;;16.02;;
18407;SDS011;9330;52.210;21.174;2024-02-21T13:23:06;28.48;;;16.25;;
18407;SDS011;9330;52.210;21.174;2024-02-21T13:25:33;26.83;;;16.45;;
18407;SDS011;9330;52.210;21.174;2024-02-21T13:28:01;26.13;;;16.45;;
18407;SDS011;9330;52.210;21.174;2024-02-21T13:30:29;24.10;;;15.05;;
18407;SDS011;9330;52.210;21.174;2024-02-21T13:32:56;25.23;;;17.23;;
18407;SDS011;9330;52.210;21.174;2024-02-21T13:35:23;24.05;;;16.42;;
18407;SDS011;9330;52.210;21.174;2024-02-21T13:37:50;25.13;;;14.82;;
18407;SDS011;9330;52.210;21.174;2024-02-21T13:40:17;25.13;;;16.02;;
18407;SDS011;9330;52.210;21.174;2024-02-21T13:42:44;27.00;;;17.50;;
18407;SDS011;9330;52.210;21.174;2024-02-21T13:45:13;20.98;;;14.80;;
18407;SDS011;9330;52.210;21.174;2024-02-21T13:47:40;28.75;;;16.88;;
18407;SDS011;9330;52.210;21.174;2024-02-21T13:50:07;27.63;;;17.95;;
18407;SDS011;9330;52.210;21.174;2024-02-21T13:52:35;26.50;;;16.80;;
18407;SDS011;9330;52.210;21.174;2024-02-21T13:55:02;27.90;;;16.83;;
18407;SDS011;9330;52.210;21.174;2024-02-21T13:57:33;25.77;;;15.65;;
18407;SDS011;9330;52.210;21.174;2024-02-21T14:00:00;23.77;;;15.43;;
18407;SDS011;9330;52.210;21.174;2024-02-21T14:02:29;25.33;;;15.43;;
18407;SDS011;9330;52.210;21.174;2024-02-21T14:04:56;28.48;;;15.70;;
18407;SDS011;9330;52.210;21.174;2024-02-21T14:07:23;22.27;;;14.55;;
18407;SDS011;9330;52.210;21.174;2024-02-21T14:09:50;23.08;;;15.07;;
18407;SDS011;9330;52.210;21.174;2024-02-21T14:12:17;24.17;;;15.68;;
18407;SDS011;9330;52.210;21.174;2024-02-21T14:14:45;22.95;;;14.82;;
18407;SDS011;9330;52.210;21.174;2024-02-21T14:17:12;25.08;;;15.77;;
18407;SDS011;9330;52.210;21.174;2024-02-21T14:19:40;25.92;;;15.00;;
18407;SDS011;9330;52.210;21.174;2024-02-21T14:22:07;22.83;;;14.23;;
18407;SDS011;9330;52.210;21.174;2024-02-21T14:24:36;22.00;;;14.82;;
18407;SDS011;9330;52.210;21.174;2024-02-21T14:27:03;26.27;;;14.38;;
18407;SDS011;9330;52.210;21.174;2024-02-21T14:29:30;24.33;;;14.20;;
18407;SDS011;9330;52.210;21.174;2024-02-21T14:31:57;27.80;;;14.77;;